Avoca, Arkansas
Current Conditions -  °F | °C
As of 9:57 AM on Tuesday 21 Oct 2014 (Local Time) from KROG Reporting Station
Overcast Overcast  
Wind Chill: 56°   Ceiling: 200
Heat Index: 56°   Visibility: 0mi
Dew Point: 55°   Wind: 3mph
Humidity: 97%   Direction: 160°SSE
Pressure: 30.17"   Gusts: NA
Location:  36.4°N, 94.07°W
Report Text: KROG 211457Z 16003KT M1/4SM OVC002 13/13 A3017 RMK AO2 SLP211 60001 T01330128 51015
Loading
Personal Weather Stations






























Interactive Weather Map New forecast layout! Learn more

10-Day Weather Forecast

Advertisements
Track Severe Weather on mobile